Terminal Aerodrome Forecast
Issued by NWS

Current Version | Previous Version | Text Only | Print | Product List | Glossary On
Versions: 1 2 3 4 5 6 7 8 9 10 11 12 13 14 15 16 17 18 19 20 21 22 23 24 25
000
FTPA31 PHFO 250500
TAFITO
TAF
PHTO 250520Z 2506/2606 24006KT P6SM VCSH SCT025 BKN040
      TEMPO 2506/2510 VRB06KT 5SM SHRA SCT015 BKN020 OVC035
     FM252000 06010KT P6SM VCSH SCT025 BKN040
     FM260500 VRB06KT P6SM VCSH SCT025 BKN040=

USA.gov is the U.S. government's official web portal to all federal, state and local government web resources and services.